首页
METAR-TAF:

METAR-TAF

机场 :

恩贾梅纳国际机场

恩賈梅納, 乍得

纬度: 12-08N, 经度: 015-02E, 海拔: 295米

当前天气观测

该预报发布于2小时和8分钟前的21:00 UTC
风速4节,风向西北
温度 25°C
湿度 30%
气压 1009 hPa
能見度: 6000

METAR: FTTJ 232100Z 32004KT 6000 NSC 25/06 Q1009 NOSIG

时间: 00:08 (23:08 UTC)

预报

该预报发布于6小时和8分钟前的17:00 UTC
预报有效从23日的 18点(UTC)到 24日的 24点(UTC)
风速4节,风向
能見度: 8000

TAF: FTTJ 231700Z 2318/2424 36004KT 8000 NSC

超过4000个机场的气象观测和天气预报(METAR&TAF报告)。

可查询的气象台以黄色和红色小点在地图上表示。

将鼠标移到小点上方,可查看气象台名称。

然后点击查看天气观测和预报。

如需切换地图:点击带黑十字的绿色按钮放大地图;点击带横线的绿色按钮缩小地图;或者点击绿色箭头查看邻近地区的地图。


METAR-TAF: